sensor_id;sensor_type;location;lat;lon;timestamp;temperature;humidity
12329;DHT22;6230;52.390;10.256;2022-09-09T00:07:04;18.70;72.20
12329;DHT22;6230;52.390;10.256;2022-09-09T00:10:09;18.70;72.30
12329;DHT22;6230;52.390;10.256;2022-09-09T00:15:00;18.70;72.20
12329;DHT22;6230;52.390;10.256;2022-09-09T00:17:38;18.70;72.30
12329;DHT22;6230;52.390;10.256;2022-09-09T00:23:14;18.70;72.30
12329;DHT22;6230;52.390;10.256;2022-09-09T00:26:04;18.70;72.30
12329;DHT22;6230;52.390;10.256;2022-09-09T00:28:41;18.70;72.30
12329;DHT22;6230;52.390;10.256;2022-09-09T00:31:21;18.70;72.20
12329;DHT22;6230;52.390;10.256;2022-09-09T00:33:49;18.70;72.30
12329;DHT22;6230;52.390;10.256;2022-09-09T00:36:18;18.70;72.30
12329;DHT22;6230;52.390;10.256;2022-09-09T00:38:56;18.60;72.30
12329;DHT22;6230;52.390;10.256;2022-09-09T00:41:31;18.60;72.30
12329;DHT22;6230;52.390;10.256;2022-09-09T00:44:27;18.60;72.20
12329;DHT22;6230;52.390;10.256;2022-09-09T00:50:00;18.70;72.30
12329;DHT22;6230;52.390;10.256;2022-09-09T00:55:34;18.60;72.10
12329;DHT22;6230;52.390;10.256;2022-09-09T00:58:07;18.60;72.10
12329;DHT22;6230;52.390;10.256;2022-09-09T01:00:53;18.60;71.90
12329;DHT22;6230;52.390;10.256;2022-09-09T01:03:34;18.60;72.20
12329;DHT22;6230;52.390;10.256;2022-09-09T01:06:25;18.60;72.10
12329;DHT22;6230;52.390;10.256;2022-09-09T01:09:18;18.50;72.10
12329;DHT22;6230;52.390;10.256;2022-09-09T01:12:03;18.50;72.00
12329;DHT22;6230;52.390;10.256;2022-09-09T01:17:26;18.50;72.00
12329;DHT22;6230;52.390;10.256;2022-09-09T01:20:45;18.50;72.10
12329;DHT22;6230;52.390;10.256;2022-09-09T01:23:13;18.50;72.00
12329;DHT22;6230;52.390;10.256;2022-09-09T01:28:11;18.50;71.90
12329;DHT22;6230;52.390;10.256;2022-09-09T01:30:41;18.50;71.90
12329;DHT22;6230;52.390;10.256;2022-09-09T01:33:12;18.50;71.90
12329;DHT22;6230;52.390;10.256;2022-09-09T01:38:06;18.50;72.00
12329;DHT22;6230;52.390;10.256;2022-09-09T01:40:32;18.50;72.00
12329;DHT22;6230;52.390;10.256;2022-09-09T01:42:58;18.50;72.00
12329;DHT22;6230;52.390;10.256;2022-09-09T01:45:24;18.40;71.90
12329;DHT22;6230;52.390;10.256;2022-09-09T01:47:52;18.50;72.00
12329;DHT22;6230;52.390;10.256;2022-09-09T01:50:18;18.40;72.00
12329;DHT22;6230;52.390;10.256;2022-09-09T01:52:46;18.40;72.00
12329;DHT22;6230;52.390;10.256;2022-09-09T01:55:13;18.40;72.00
12329;DHT22;6230;52.390;10.256;2022-09-09T02:00:14;18.30;72.10
12329;DHT22;6230;52.390;10.256;2022-09-09T02:10:56;18.30;72.00
12329;DHT22;6230;52.390;10.256;2022-09-09T02:13:24;18.30;72.10
12329;DHT22;6230;52.390;10.256;2022-09-09T02:16:05;18.30;72.00
12329;DHT22;6230;52.390;10.256;2022-09-09T02:21:25;18.20;72.20
12329;DHT22;6230;52.390;10.256;2022-09-09T02:23:55;18.20;72.10
12329;DHT22;6230;52.390;10.256;2022-09-09T02:26:23;18.20;72.30
12329;DHT22;6230;52.390;10.256;2022-09-09T02:28:52;18.10;72.40
12329;DHT22;6230;52.390;10.256;2022-09-09T02:31:20;18.10;72.50
12329;DHT22;6230;52.390;10.256;2022-09-09T02:33:59;18.10;72.70
12329;DHT22;6230;52.390;10.256;2022-09-09T02:36:29;18.10;72.90
12329;DHT22;6230;52.390;10.256;2022-09-09T02:38:56;18.10;72.90
12329;DHT22;6230;52.390;10.256;2022-09-09T02:41:33;18.10;73.00
12329;DHT22;6230;52.390;10.256;2022-09-09T02:43:59;18.10;73.20
12329;DHT22;6230;52.390;10.256;2022-09-09T02:55:10;18.20;72.90
12329;DHT22;6230;52.390;10.256;2022-09-09T02:57:38;18.20;72.90
12329;DHT22;6230;52.390;10.256;2022-09-09T03:00:04;18.20;73.00
12329;DHT22;6230;52.390;10.256;2022-09-09T03:02:30;18.10;72.90
12329;DHT22;6230;52.390;10.256;2022-09-09T03:04:56;18.10;73.00
12329;DHT22;6230;52.390;10.256;2022-09-09T03:07:21;18.10;73.10
12329;DHT22;6230;52.390;10.256;2022-09-09T03:09:47;18.10;73.10
12329;DHT22;6230;52.390;10.256;2022-09-09T03:12:13;18.10;73.10
12329;DHT22;6230;52.390;10.256;2022-09-09T03:14:39;18.10;73.10
12329;DHT22;6230;52.390;10.256;2022-09-09T03:17:05;18.10;73.10
12329;DHT22;6230;52.390;10.256;2022-09-09T03:19:31;18.10;73.90
12329;DHT22;6230;52.390;10.256;2022-09-09T03:21:57;18.10;73.20
12329;DHT22;6230;52.390;10.256;2022-09-09T03:24:23;18.10;73.30
12329;DHT22;6230;52.390;10.256;2022-09-09T03:26:49;18.10;73.30
12329;DHT22;6230;52.390;10.256;2022-09-09T03:29:16;18.10;74.10
12329;DHT22;6230;52.390;10.256;2022-09-09T03:31:42;18.10;73.40
12329;DHT22;6230;52.390;10.256;2022-09-09T03:34:08;18.00;73.50
12329;DHT22;6230;52.390;10.256;2022-09-09T03:36:34;18.00;73.50
12329;DHT22;6230;52.390;10.256;2022-09-09T03:38:59;18.00;73.50
12329;DHT22;6230;52.390;10.256;2022-09-09T03:41:26;18.00;73.50
12329;DHT22;6230;52.390;10.256;2022-09-09T03:43:52;18.10;74.40
12329;DHT22;6230;52.390;10.256;2022-09-09T03:46:18;18.10;73.70
12329;DHT22;6230;52.390;10.256;2022-09-09T03:48:44;18.10;73.70
12329;DHT22;6230;52.390;10.256;2022-09-09T03:51:10;18.10;73.70
12329;DHT22;6230;52.390;10.256;2022-09-09T03:53:36;18.10;73.70
12329;DHT22;6230;52.390;10.256;2022-09-09T03:56:04;18.10;73.60
12329;DHT22;6230;52.390;10.256;2022-09-09T03:58:33;18.10;73.70
12329;DHT22;6230;52.390;10.256;2022-09-09T04:01:01;18.10;73.60
12329;DHT22;6230;52.390;10.256;2022-09-09T04:03:27;18.10;74.40
12329;DHT22;6230;52.390;10.256;2022-09-09T04:05:54;18.20;73.60
12329;DHT22;6230;52.390;10.256;2022-09-09T04:08:20;18.20;73.50
12329;DHT22;6230;52.390;10.256;2022-09-09T04:10:51;18.20;73.50
12329;DHT22;6230;52.390;10.256;2022-09-09T04:13:17;18.20;73.50
12329;DHT22;6230;52.390;10.256;2022-09-09T04:15:44;18.20;73.40
12329;DHT22;6230;52.390;10.256;2022-09-09T04:18:15;18.20;73.50
12329;DHT22;6230;52.390;10.256;2022-09-09T04:20:40;18.20;73.40
12329;DHT22;6230;52.390;10.256;2022-09-09T04:23:06;18.20;73.40
12329;DHT22;6230;52.390;10.256;2022-09-09T04:25:31;18.20;73.40
12329;DHT22;6230;52.390;10.256;2022-09-09T04:27:58;18.30;73.40
12329;DHT22;6230;52.390;10.256;2022-09-09T04:30:24;18.20;73.40
12329;DHT22;6230;52.390;10.256;2022-09-09T04:32:50;18.30;73.50
12329;DHT22;6230;52.390;10.256;2022-09-09T04:35:16;18.30;73.40
12329;DHT22;6230;52.390;10.256;2022-09-09T04:37:41;18.30;73.50
12329;DHT22;6230;52.390;10.256;2022-09-09T04:40:08;18.30;73.50
12329;DHT22;6230;52.390;10.256;2022-09-09T04:42:38;18.30;73.60
12329;DHT22;6230;52.390;10.256;2022-09-09T04:45:05;18.30;73.60
12329;DHT22;6230;52.390;10.256;2022-09-09T04:47:31;18.30;73.60
12329;DHT22;6230;52.390;10.256;2022-09-09T04:49:57;18.30;73.60
12329;DHT22;6230;52.390;10.256;2022-09-09T04:52:22;18.40;73.60
12329;DHT22;6230;52.390;10.256;2022-09-09T04:54:48;18.40;73.50
12329;DHT22;6230;52.390;10.256;2022-09-09T04:57:13;18.40;73.50
12329;DHT22;6230;52.390;10.256;2022-09-09T04:59:39;18.40;73.50
12329;DHT22;6230;52.390;10.256;2022-09-09T05:02:05;18.40;73.50
12329;DHT22;6230;52.390;10.256;2022-09-09T05:04:31;18.50;73.50
12329;DHT22;6230;52.390;10.256;2022-09-09T05:06:57;18.50;73.50
12329;DHT22;6230;52.390;10.256;2022-09-09T05:09:22;18.50;73.50
12329;DHT22;6230;52.390;10.256;2022-09-09T05:11:48;18.50;73.50
12329;DHT22;6230;52.390;10.256;2022-09-09T05:14:14;18.50;73.50
12329;DHT22;6230;52.390;10.256;2022-09-09T05:16:40;18.50;73.40
12329;DHT22;6230;52.390;10.256;2022-09-09T05:19:07;18.60;73.50
12329;DHT22;6230;52.390;10.256;2022-09-09T05:21:34;18.60;73.50
12329;DHT22;6230;52.390;10.256;2022-09-09T05:23:59;18.60;73.60
12329;DHT22;6230;52.390;10.256;2022-09-09T05:26:28;18.60;73.60
12329;DHT22;6230;52.390;10.256;2022-09-09T05:28:54;18.60;73.60
12329;DHT22;6230;52.390;10.256;2022-09-09T05:31:21;18.60;73.60
12329;DHT22;6230;52.390;10.256;2022-09-09T05:33:47;18.60;73.60
12329;DHT22;6230;52.390;10.256;2022-09-09T05:36:17;18.60;73.60
12329;DHT22;6230;52.390;10.256;2022-09-09T05:38:44;18.70;73.70
12329;DHT22;6230;52.390;10.256;2022-09-09T05:41:10;18.70;73.70
12329;DHT22;6230;52.390;10.256;2022-09-09T05:43:41;18.70;73.70
12329;DHT22;6230;52.390;10.256;2022-09-09T05:46:10;18.70;73.70
12329;DHT22;6230;52.390;10.256;2022-09-09T05:48:40;18.70;73.80
12329;DHT22;6230;52.390;10.256;2022-09-09T05:51:09;18.70;73.80
12329;DHT22;6230;52.390;10.256;2022-09-09T05:53:37;18.80;73.80
12329;DHT22;6230;52.390;10.256;2022-09-09T05:56:05;18.80;73.80
12329;DHT22;6230;52.390;10.256;2022-09-09T05:58:34;18.80;73.70
12329;DHT22;6230;52.390;10.256;2022-09-09T06:01:11;18.80;73.80
12329;DHT22;6230;52.390;10.256;2022-09-09T06:03:39;18.90;73.90
12329;DHT22;6230;52.390;10.256;2022-09-09T06:06:07;18.90;73.80
12329;DHT22;6230;52.390;10.256;2022-09-09T06:08:37;18.90;73.80
12329;DHT22;6230;52.390;10.256;2022-09-09T06:11:04;18.90;73.80
12329;DHT22;6230;52.390;10.256;2022-09-09T06:13:30;18.90;73.80
12329;DHT22;6230;52.390;10.256;2022-09-09T06:15:56;18.90;73.90
12329;DHT22;6230;52.390;10.256;2022-09-09T06:18:22;18.90;73.90
12329;DHT22;6230;52.390;10.256;2022-09-09T06:20:58;18.90;73.90
12329;DHT22;6230;52.390;10.256;2022-09-09T06:23:25;18.90;74.00
12329;DHT22;6230;52.390;10.256;2022-09-09T06:25:51;18.90;73.90
12329;DHT22;6230;52.390;10.256;2022-09-09T06:28:18;18.90;73.90
12329;DHT22;6230;52.390;10.256;2022-09-09T06:30:44;18.90;73.90
12329;DHT22;6230;52.390;10.256;2022-09-09T06:33:10;19.00;74.00
12329;DHT22;6230;52.390;10.256;2022-09-09T06:35:35;19.00;74.00
12329;DHT22;6230;52.390;10.256;2022-09-09T06:38:01;19.00;74.00
12329;DHT22;6230;52.390;10.256;2022-09-09T06:40:26;19.00;74.00
12329;DHT22;6230;52.390;10.256;2022-09-09T06:42:52;19.00;74.10
12329;DHT22;6230;52.390;10.256;2022-09-09T06:45:18;19.00;74.00
12329;DHT22;6230;52.390;10.256;2022-09-09T06:47:44;19.00;74.10
12329;DHT22;6230;52.390;10.256;2022-09-09T06:50:10;19.10;74.10
12329;DHT22;6230;52.390;10.256;2022-09-09T06:52:36;19.10;74.20
12329;DHT22;6230;52.390;10.256;2022-09-09T06:55:02;19.10;74.10
12329;DHT22;6230;52.390;10.256;2022-09-09T06:57:28;19.20;74.20
12329;DHT22;6230;52.390;10.256;2022-09-09T06:59:53;19.30;74.20
12329;DHT22;6230;52.390;10.256;2022-09-09T07:02:19;19.30;74.20
12329;DHT22;6230;52.390;10.256;2022-09-09T07:04:45;19.40;74.10
12329;DHT22;6230;52.390;10.256;2022-09-09T07:07:10;19.40;73.90
12329;DHT22;6230;52.390;10.256;2022-09-09T07:09:38;19.50;73.90
12329;DHT22;6230;52.390;10.256;2022-09-09T07:12:05;19.50;73.80
12329;DHT22;6230;52.390;10.256;2022-09-09T07:14:31;19.60;73.70
12329;DHT22;6230;52.390;10.256;2022-09-09T07:16:58;19.60;73.70
12329;DHT22;6230;52.390;10.256;2022-09-09T07:19:23;19.70;73.80
12329;DHT22;6230;52.390;10.256;2022-09-09T07:21:49;19.70;73.60
12329;DHT22;6230;52.390;10.256;2022-09-09T07:24:15;19.80;73.70
12329;DHT22;6230;52.390;10.256;2022-09-09T07:26:41;19.80;73.50
12329;DHT22;6230;52.390;10.256;2022-09-09T07:29:08;19.90;73.50
12329;DHT22;6230;52.390;10.256;2022-09-09T07:31:36;19.90;73.30
12329;DHT22;6230;52.390;10.256;2022-09-09T07:34:02;20.00;73.10
12329;DHT22;6230;52.390;10.256;2022-09-09T07:36:30;20.00;73.00
12329;DHT22;6230;52.390;10.256;2022-09-09T07:38:59;20.10;73.00
12329;DHT22;6230;52.390;10.256;2022-09-09T07:41:31;20.10;72.80
12329;DHT22;6230;52.390;10.256;2022-09-09T07:43:58;20.20;72.60
12329;DHT22;6230;52.390;10.256;2022-09-09T07:46:25;20.20;72.50
12329;DHT22;6230;52.390;10.256;2022-09-09T07:48:55;20.20;72.40
12329;DHT22;6230;52.390;10.256;2022-09-09T07:51:24;20.20;72.40
12329;DHT22;6230;52.390;10.256;2022-09-09T07:53:55;20.20;72.30
12329;DHT22;6230;52.390;10.256;2022-09-09T07:56:22;20.30;72.20
12329;DHT22;6230;52.390;10.256;2022-09-09T07:58:49;20.30;72.10
12329;DHT22;6230;52.390;10.256;2022-09-09T08:01:20;20.40;72.10
12329;DHT22;6230;52.390;10.256;2022-09-09T08:03:53;20.40;71.90
12329;DHT22;6230;52.390;10.256;2022-09-09T08:06:19;20.40;71.60
12329;DHT22;6230;52.390;10.256;2022-09-09T08:08:49;20.40;71.50
12329;DHT22;6230;52.390;10.256;2022-09-09T08:11:15;20.40;71.50
12329;DHT22;6230;52.390;10.256;2022-09-09T08:13:42;20.50;71.40
12329;DHT22;6230;52.390;10.256;2022-09-09T08:16:11;20.50;71.30
12329;DHT22;6230;52.390;10.256;2022-09-09T08:18:37;20.50;71.30
12329;DHT22;6230;52.390;10.256;2022-09-09T08:21:09;20.60;71.30
12329;DHT22;6230;52.390;10.256;2022-09-09T08:23:40;20.60;71.20
12329;DHT22;6230;52.390;10.256;2022-09-09T08:26:20;20.60;71.10
12329;DHT22;6230;52.390;10.256;2022-09-09T08:28:51;20.70;70.80
12329;DHT22;6230;52.390;10.256;2022-09-09T08:31:22;20.70;70.80
12329;DHT22;6230;52.390;10.256;2022-09-09T08:33:48;20.70;70.70
12329;DHT22;6230;52.390;10.256;2022-09-09T08:36:17;20.70;70.50
12329;DHT22;6230;52.390;10.256;2022-09-09T08:38:43;20.70;70.40
12329;DHT22;6230;52.390;10.256;2022-09-09T08:49:42;20.90;70.20
12329;DHT22;6230;52.390;10.256;2022-09-09T08:52:23;21.10;70.20
12329;DHT22;6230;52.390;10.256;2022-09-09T08:54:51;21.30;69.90
12329;DHT22;6230;52.390;10.256;2022-09-09T08:57:23;21.50;69.60
12329;DHT22;6230;52.390;10.256;2022-09-09T08:59:54;21.60;69.20
12329;DHT22;6230;52.390;10.256;2022-09-09T09:05:32;21.90;68.40
12329;DHT22;6230;52.390;10.256;2022-09-09T09:10:49;22.10;67.70
12329;DHT22;6230;52.390;10.256;2022-09-09T09:13:19;22.20;67.10
12329;DHT22;6230;52.390;10.256;2022-09-09T09:15:51;22.20;67.00
12329;DHT22;6230;52.390;10.256;2022-09-09T09:18:18;22.20;66.70
12329;DHT22;6230;52.390;10.256;2022-09-09T09:23:40;22.40;66.60
12329;DHT22;6230;52.390;10.256;2022-09-09T09:26:09;22.50;66.10
12329;DHT22;6230;52.390;10.256;2022-09-09T09:28:36;22.50;66.00
12329;DHT22;6230;52.390;10.256;2022-09-09T09:31:11;22.50;65.80
12329;DHT22;6230;52.390;10.256;2022-09-09T09:36:07;22.50;65.40
12329;DHT22;6230;52.390;10.256;2022-09-09T09:38:34;22.50;65.50
12329;DHT22;6230;52.390;10.256;2022-09-09T09:41:00;22.60;65.20
12329;DHT22;6230;52.390;10.256;2022-09-09T09:43:31;22.60;65.00
12329;DHT22;6230;52.390;10.256;2022-09-09T09:45:58;22.70;64.80
12329;DHT22;6230;52.390;10.256;2022-09-09T09:48:25;22.70;64.90
12329;DHT22;6230;52.390;10.256;2022-09-09T09:50:54;22.80;64.50
12329;DHT22;6230;52.390;10.256;2022-09-09T09:53:31;22.80;64.20
12329;DHT22;6230;52.390;10.256;2022-09-09T09:56:05;22.90;64.00
12329;DHT22;6230;52.390;10.256;2022-09-09T09:58:36;23.00;64.00
12329;DHT22;6230;52.390;10.256;2022-09-09T10:01:03;23.10;63.60
12329;DHT22;6230;52.390;10.256;2022-09-09T10:03:34;23.10;63.20
12329;DHT22;6230;52.390;10.256;2022-09-09T10:06:03;23.20;63.10
12329;DHT22;6230;52.390;10.256;2022-09-09T10:08:29;23.30;63.10
12329;DHT22;6230;52.390;10.256;2022-09-09T10:11:14;23.50;63.60
12329;DHT22;6230;52.390;10.256;2022-09-09T10:14:32;23.70;62.20
12329;DHT22;6230;52.390;10.256;2022-09-09T10:17:09;23.80;61.30
12329;DHT22;6230;52.390;10.256;2022-09-09T10:19:55;23.80;61.20
12329;DHT22;6230;52.390;10.256;2022-09-09T10:22:31;23.80;61.40
12329;DHT22;6230;52.390;10.256;2022-09-09T10:30:33;24.20;59.80
12329;DHT22;6230;52.390;10.256;2022-09-09T10:33:10;24.30;59.80
12329;DHT22;6230;52.390;10.256;2022-09-09T10:35:45;24.30;59.40
12329;DHT22;6230;52.390;10.256;2022-09-09T10:39:01;24.30;59.40
12329;DHT22;6230;52.390;10.256;2022-09-09T10:44:05;24.20;59.20
12329;DHT22;6230;52.390;10.256;2022-09-09T10:49:20;24.00;58.60
12329;DHT22;6230;52.390;10.256;2022-09-09T10:52:19;23.90;58.70
12329;DHT22;6230;52.390;10.256;2022-09-09T10:54:56;23.90;58.90
12329;DHT22;6230;52.390;10.256;2022-09-09T10:57:28;23.80;59.50
12329;DHT22;6230;52.390;10.256;2022-09-09T11:00:04;23.80;59.70
12329;DHT22;6230;52.390;10.256;2022-09-09T11:02:33;23.80;60.30
12329;DHT22;6230;52.390;10.256;2022-09-09T11:07:40;23.70;60.80
12329;DHT22;6230;52.390;10.256;2022-09-09T11:10:34;23.70;61.70
12329;DHT22;6230;52.390;10.256;2022-09-09T11:13:05;23.60;61.90
12329;DHT22;6230;52.390;10.256;2022-09-09T11:15:36;23.60;62.20
12329;DHT22;6230;52.390;10.256;2022-09-09T11:18:08;23.60;62.10
12329;DHT22;6230;52.390;10.256;2022-09-09T11:20:36;23.60;62.10
12329;DHT22;6230;52.390;10.256;2022-09-09T11:23:13;23.60;62.60
12329;DHT22;6230;52.390;10.256;2022-09-09T11:25:50;23.80;63.00
12329;DHT22;6230;52.390;10.256;2022-09-09T11:28:42;24.00;63.20
12329;DHT22;6230;52.390;10.256;2022-09-09T11:31:27;24.10;61.70
12329;DHT22;6230;52.390;10.256;2022-09-09T11:42:25;23.60;59.60
12329;DHT22;6230;52.390;10.256;2022-09-09T11:44:52;23.40;59.10
12329;DHT22;6230;52.390;10.256;2022-09-09T11:47:26;23.20;59.40
12329;DHT22;6230;52.390;10.256;2022-09-09T11:49:55;23.20;59.10
12329;DHT22;6230;52.390;10.256;2022-09-09T11:52:44;23.10;59.30
12329;DHT22;6230;52.390;10.256;2022-09-09T11:55:33;23.10;58.90
12329;DHT22;6230;52.390;10.256;2022-09-09T11:58:01;23.00;58.80
12329;DHT22;6230;52.390;10.256;2022-09-09T12:00:42;22.90;58.80
12329;DHT22;6230;52.390;10.256;2022-09-09T12:03:35;22.80;58.60
12329;DHT22;6230;52.390;10.256;2022-09-09T12:06:17;22.70;59.00
12329;DHT22;6230;52.390;10.256;2022-09-09T12:08:52;22.50;60.10
12329;DHT22;6230;52.390;10.256;2022-09-09T12:11:27;22.30;60.90
12329;DHT22;6230;52.390;10.256;2022-09-09T12:13:55;22.10;61.80
12329;DHT22;6230;52.390;10.256;2022-09-09T12:16:35;21.90;62.00
12329;DHT22;6230;52.390;10.256;2022-09-09T12:21:40;21.80;62.60
12329;DHT22;6230;52.390;10.256;2022-09-09T12:24:13;21.70;63.70
12329;DHT22;6230;52.390;10.256;2022-09-09T12:27:02;21.70;63.90
12329;DHT22;6230;52.390;10.256;2022-09-09T12:29:44;21.60;64.40
12329;DHT22;6230;52.390;10.256;2022-09-09T12:32:16;21.60;64.50
12329;DHT22;6230;52.390;10.256;2022-09-09T12:37:34;21.60;65.30
12329;DHT22;6230;52.390;10.256;2022-09-09T12:40:06;21.70;65.50
12329;DHT22;6230;52.390;10.256;2022-09-09T12:42:32;21.70;65.70
12329;DHT22;6230;52.390;10.256;2022-09-09T12:45:02;21.70;65.80
12329;DHT22;6230;52.390;10.256;2022-09-09T12:47:51;21.70;66.00
12329;DHT22;6230;52.390;10.256;2022-09-09T12:50:21;21.80;66.10
12329;DHT22;6230;52.390;10.256;2022-09-09T12:52:48;21.80;66.10
12329;DHT22;6230;52.390;10.256;2022-09-09T12:55:18;21.80;66.30
12329;DHT22;6230;52.390;10.256;2022-09-09T12:57:45;21.70;66.50
12329;DHT22;6230;52.390;10.256;2022-09-09T13:00:37;21.70;66.70
12329;DHT22;6230;52.390;10.256;2022-09-09T13:03:18;21.60;67.40
12329;DHT22;6230;52.390;10.256;2022-09-09T13:05:44;21.60;67.50
12329;DHT22;6230;52.390;10.256;2022-09-09T13:08:13;21.60;67.60
12329;DHT22;6230;52.390;10.256;2022-09-09T13:10:50;21.60;67.90
12329;DHT22;6230;52.390;10.256;2022-09-09T13:13:22;21.70;68.50
12329;DHT22;6230;52.390;10.256;2022-09-09T13:15:54;21.70;68.40
12329;DHT22;6230;52.390;10.256;2022-09-09T13:18:32;21.80;68.60
12329;DHT22;6230;52.390;10.256;2022-09-09T13:20:58;21.80;68.70
12329;DHT22;6230;52.390;10.256;2022-09-09T13:23:29;21.80;68.90
12329;DHT22;6230;52.390;10.256;2022-09-09T13:26:01;21.90;69.30
12329;DHT22;6230;52.390;10.256;2022-09-09T13:28:29;21.90;69.30
12329;DHT22;6230;52.390;10.256;2022-09-09T13:33:36;22.10;69.10
12329;DHT22;6230;52.390;10.256;2022-09-09T13:36:09;22.10;68.80
12329;DHT22;6230;52.390;10.256;2022-09-09T13:41:19;22.20;68.40
12329;DHT22;6230;52.390;10.256;2022-09-09T13:43:47;22.20;68.30
12329;DHT22;6230;52.390;10.256;2022-09-09T13:46:35;22.30;68.30
12329;DHT22;6230;52.390;10.256;2022-09-09T13:51:45;22.30;68.10
12329;DHT22;6230;52.390;10.256;2022-09-09T13:54:14;22.20;68.10
12329;DHT22;6230;52.390;10.256;2022-09-09T13:56:41;22.10;68.30
12329;DHT22;6230;52.390;10.256;2022-09-09T13:59:18;22.00;68.70
12329;DHT22;6230;52.390;10.256;2022-09-09T14:01:45;22.00;69.20
12329;DHT22;6230;52.390;10.256;2022-09-09T14:04:11;21.90;69.10
12329;DHT22;6230;52.390;10.256;2022-09-09T14:06:37;21.90;68.80
12329;DHT22;6230;52.390;10.256;2022-09-09T14:09:10;21.80;68.50
12329;DHT22;6230;52.390;10.256;2022-09-09T14:11:36;21.80;68.50
12329;DHT22;6230;52.390;10.256;2022-09-09T14:14:01;21.80;68.50
12329;DHT22;6230;52.390;10.256;2022-09-09T14:16:27;21.90;68.90
12329;DHT22;6230;52.390;10.256;2022-09-09T14:18:53;21.80;68.80
12329;DHT22;6230;52.390;10.256;2022-09-09T14:21:21;21.90;68.90
12329;DHT22;6230;52.390;10.256;2022-09-09T14:23:46;21.90;68.80
12329;DHT22;6230;52.390;10.256;2022-09-09T14:26:13;22.00;68.70
12329;DHT22;6230;52.390;10.256;2022-09-09T14:28:39;22.10;68.50
12329;DHT22;6230;52.390;10.256;2022-09-09T14:31:06;22.20;68.30
12329;DHT22;6230;52.390;10.256;2022-09-09T14:33:32;22.30;68.10
12329;DHT22;6230;52.390;10.256;2022-09-09T14:35:59;22.40;67.50
12329;DHT22;6230;52.390;10.256;2022-09-09T14:38:29;22.40;66.80
12329;DHT22;6230;52.390;10.256;2022-09-09T14:40:54;22.40;66.90
12329;DHT22;6230;52.390;10.256;2022-09-09T14:43:21;22.50;66.70
12329;DHT22;6230;52.390;10.256;2022-09-09T14:45:47;22.60;66.00
12329;DHT22;6230;52.390;10.256;2022-09-09T14:48:14;22.60;65.50
12329;DHT22;6230;52.390;10.256;2022-09-09T14:50:40;22.60;65.20
12329;DHT22;6230;52.390;10.256;2022-09-09T14:53:06;22.60;65.00
12329;DHT22;6230;52.390;10.256;2022-09-09T14:55:32;22.60;65.60
12329;DHT22;6230;52.390;10.256;2022-09-09T14:57:58;22.70;66.30
12329;DHT22;6230;52.390;10.256;2022-09-09T15:00:24;22.80;66.90
12329;DHT22;6230;52.390;10.256;2022-09-09T15:02:52;22.80;67.20
12329;DHT22;6230;52.390;10.256;2022-09-09T15:05:18;23.00;67.50
12329;DHT22;6230;52.390;10.256;2022-09-09T15:07:44;23.00;67.10
12329;DHT22;6230;52.390;10.256;2022-09-09T15:10:11;23.00;66.80
12329;DHT22;6230;52.390;10.256;2022-09-09T15:12:37;23.10;66.60
12329;DHT22;6230;52.390;10.256;2022-09-09T15:15:04;23.10;66.30
12329;DHT22;6230;52.390;10.256;2022-09-09T15:17:30;23.10;65.70
12329;DHT22;6230;52.390;10.256;2022-09-09T15:19:56;23.10;64.90
12329;DHT22;6230;52.390;10.256;2022-09-09T15:22:22;23.10;64.30
12329;DHT22;6230;52.390;10.256;2022-09-09T15:24:47;23.00;64.50
12329;DHT22;6230;52.390;10.256;2022-09-09T15:27:13;23.00;64.80
12329;DHT22;6230;52.390;10.256;2022-09-09T15:29:40;23.10;65.00
12329;DHT22;6230;52.390;10.256;2022-09-09T15:32:06;23.20;64.90
12329;DHT22;6230;52.390;10.256;2022-09-09T15:34:31;23.20;64.80
12329;DHT22;6230;52.390;10.256;2022-09-09T15:36:57;23.20;65.10
12329;DHT22;6230;52.390;10.256;2022-09-09T15:39:22;23.30;65.20
12329;DHT22;6230;52.390;10.256;2022-09-09T15:41:48;23.20;64.80
12329;DHT22;6230;52.390;10.256;2022-09-09T15:44:14;23.20;64.90
12329;DHT22;6230;52.390;10.256;2022-09-09T15:46:43;23.30;65.00
12329;DHT22;6230;52.390;10.256;2022-09-09T15:49:14;23.30;65.00
12329;DHT22;6230;52.390;10.256;2022-09-09T15:51:45;23.30;65.00
12329;DHT22;6230;52.390;10.256;2022-09-09T15:54:14;23.20;65.00
12329;DHT22;6230;52.390;10.256;2022-09-09T15:56:40;23.20;65.10
12329;DHT22;6230;52.390;10.256;2022-09-09T15:59:06;23.30;65.30
12329;DHT22;6230;52.390;10.256;2022-09-09T16:01:32;23.20;65.30
12329;DHT22;6230;52.390;10.256;2022-09-09T16:03:58;23.20;65.40
12329;DHT22;6230;52.390;10.256;2022-09-09T16:06:25;23.20;65.50
12329;DHT22;6230;52.390;10.256;2022-09-09T16:08:53;23.20;65.50
12329;DHT22;6230;52.390;10.256;2022-09-09T16:13:46;23.20;65.30
12329;DHT22;6230;52.390;10.256;2022-09-09T16:16:14;23.20;65.40
12329;DHT22;6230;52.390;10.256;2022-09-09T16:18:48;23.20;65.40
12329;DHT22;6230;52.390;10.256;2022-09-09T16:21:17;23.20;65.50
12329;DHT22;6230;52.390;10.256;2022-09-09T16:23:44;23.20;65.60
12329;DHT22;6230;52.390;10.256;2022-09-09T16:26:15;23.30;65.80
12329;DHT22;6230;52.390;10.256;2022-09-09T16:28:41;23.30;66.00
12329;DHT22;6230;52.390;10.256;2022-09-09T16:31:08;23.20;65.90
12329;DHT22;6230;52.390;10.256;2022-09-09T16:33:36;23.30;66.00
12329;DHT22;6230;52.390;10.256;2022-09-09T16:36:09;23.20;66.00
12329;DHT22;6230;52.390;10.256;2022-09-09T16:38:36;23.20;65.90
12329;DHT22;6230;52.390;10.256;2022-09-09T16:41:03;23.10;65.90
12329;DHT22;6230;52.390;10.256;2022-09-09T16:43:34;23.10;66.00
12329;DHT22;6230;52.390;10.256;2022-09-09T16:46:00;23.00;66.00
12329;DHT22;6230;52.390;10.256;2022-09-09T16:48:32;23.00;66.00
12329;DHT22;6230;52.390;10.256;2022-09-09T16:51:07;23.00;66.10
12329;DHT22;6230;52.390;10.256;2022-09-09T16:53:34;23.00;66.20
12329;DHT22;6230;52.390;10.256;2022-09-09T16:56:06;23.00;66.20
12329;DHT22;6230;52.390;10.256;2022-09-09T16:58:32;23.00;66.30
12329;DHT22;6230;52.390;10.256;2022-09-09T17:00:59;22.90;66.30
12329;DHT22;6230;52.390;10.256;2022-09-09T17:03:25;22.90;66.30
12329;DHT22;6230;52.390;10.256;2022-09-09T17:05:51;22.90;66.20
12329;DHT22;6230;52.390;10.256;2022-09-09T17:08:16;22.80;66.10
12329;DHT22;6230;52.390;10.256;2022-09-09T17:10:42;22.80;66.10
12329;DHT22;6230;52.390;10.256;2022-09-09T17:13:08;22.70;66.10
12329;DHT22;6230;52.390;10.256;2022-09-09T17:15:39;22.70;66.20
12329;DHT22;6230;52.390;10.256;2022-09-09T17:18:10;22.70;66.20
12329;DHT22;6230;52.390;10.256;2022-09-09T17:20:38;22.60;66.30
12329;DHT22;6230;52.390;10.256;2022-09-09T17:23:05;22.50;66.30
12329;DHT22;6230;52.390;10.256;2022-09-09T17:25:31;22.50;66.50
12329;DHT22;6230;52.390;10.256;2022-09-09T17:27:57;22.50;66.60
12329;DHT22;6230;52.390;10.256;2022-09-09T17:30:23;22.50;66.80
12329;DHT22;6230;52.390;10.256;2022-09-09T17:32:49;22.40;66.90